Spiro, Oklahoma
Current Conditions -  °F | °C
As of 4:55 PM on Wednesday 22 Oct 2014 (Local Time) from KRKR Reporting Station
Haze Haze  
Wind Chill: 76°   Ceiling: 500
Heat Index: 76°   Visibility: 0.5mi
Dew Point: 53°   Wind: 3mph
Humidity: 44%   Direction: 130°SE
Pressure: 30.1"   Gusts: NA
Location:  35.24°N, 94.62°W
Report Text: KRKR 222155Z AUTO 13003KT 1/2SM HZ VV005 24/11 A3010 RMK AO2 T02430114
Loading
Personal Weather Stations






























Interactive Weather Map
Tropical Storm Tracking
New forecast layout! Learn more

10-Day Weather Forecast

Advertisements
Track Severe Weather on mobile